This is the latest recevied weather packets stored in our database for station/object W7MKM-13. If no packets are shown the sender has not sent any weather packets the latest 10 day(s).
| Time | Temp. | Humidity | Pressure | Rain* | Wind** | Luminosity | Snow |
|---|---|---|---|---|---|---|---|
| 1777606816 | 12.78° C | 37% | 1018.2 hPa | 0 mm | - | 0 W/m² | - |
| 1777605916 | 13.33° C | 35% | 1018 hPa | 0 mm | - | 0 W/m² | - |
| 1777605616 | 13.89° C | 34% | 1018.2 hPa | 0 mm | - | 0 W/m² | - |
| 1777605316 | 13.89° C | 33% | 1018.2 hPa | 0 mm | - | 0 W/m² | - |
| 1777599616 | 15.56° C | 32% | 1016.3 hPa | 0 mm | - | 74 W/m² | - |
| 1777593616 | 16.11° C | 30% | 1015.9 hPa | 0 mm | - | 365 W/m² | - |
| 1777591816 | 16.11° C | 31% | 1016.1 hPa | 0 mm | - | 524 W/m² | - |
| 1777590016 | 16.67° C | 32% | 1016.2 hPa | 0 mm | - | 619 W/m² | - |
| 1777589116 | 15.56° C | 34% | 1016.1 hPa | 0 mm | - | 563 W/m² | - |
| 1777587916 | 15.56° C | 34% | 1016.5 hPa | 0 mm | - | 144 W/m² | - |
| 1777585217 | 16.11° C | 32% | 1017.2 hPa | 0 mm | - | 214 W/m² | - |
| 1777584016 | 16.11° C | 29% | 1017.3 hPa | 0 mm | - | 414 W/m² | - |
| 1777583416 | 16.67° C | 29% | 1017.7 hPa | 0 mm | - | 501 W/m² | - |
| 1777581316 | 16.67° C | 30% | 1017.8 hPa | 0 mm | - | 1054 W/m² | - |
| 1777581016 | 16.67° C | 31% | 1018.3 hPa | 0 mm | - | 1049 W/m² | - |
| 1777579516 | 16.11° C | 33% | 1018 hPa | 0 mm | - | 998 W/m² | - |
| 1777578316 | 16.67° C | 30% | 1018.3 hPa | 0 mm | - | 1002 W/m² | - |
| 1777574716 | 16.11° C | 33% | 1019 hPa | 0 mm | - | 979 W/m² | - |
| 1777573816 | 15.56° C | 34% | 1019.3 hPa | 0 mm | - | 968 W/m² | - |
| 1777573516 | 15.56° C | 33% | 1019.2 hPa | 0 mm | - | 953 W/m² | - |
| 1777572616 | 15.56° C | 36% | 1019.5 hPa | 0 mm | - | 940 W/m² | - |
| 1777572316 | 15° C | 34% | 1019.5 hPa | 0 mm | - | 937 W/m² | - |
| 1777568716 | 14.44° C | 41% | 1020.3 hPa | 0 mm | - | 824 W/m² | - |
| 1777568116 | 13.89° C | 46% | 1020.3 hPa | 0 mm | - | 799 W/m² | - |
| 1777566616 | 12.78° C | 48% | 1020.5 hPa | 0 mm | - | 735 W/m² | - |
* Rain latest hour (hover to see other rain measurements)
** Current wind speed in m/s (hover to see current wind gust speed)